Providence, Rhode Island
Traffic Map
Current Weather Conditions
Providence, Rhode Island
Broken Clouds
Broken Clouds
19°
Feels Like: 19°
Wind Chill: 19° Ceiling: 25000
Heat Index: 19° Visibility: 10mi
Dew Point: Wind: 9mph
Humidity: 54% Direction: 180° (S)
Pressure: 30.06in Gusts: 0mph
Raw Report DataKPVD 222251Z 18008KT 10SM FEW045 FEW130 BKN250 19/09 A3006 RMK AO2 SLP180 T01890094
Traffic Incident Summary
Active as of:
Severity:
Category:
InformationThere was an issue retrieving the traffic information for this location. Please try a different location or try again shortly.
Advertisements